Station: Sunshine Coast Airport  

  Atmospheric Gas Attenuation - ITU Rec 676-11   ----------------- dB/100km -----------------
Date Time Temp RH % AH g/m3 Dew Point Wind Direction Speed kph Gust kph Barometer mB Rainfall Since 9am 24GHz 47GHz 76GHz 122GHz 134GHz 241GHz
05/05 23:50 19.7 92 15.62 18.4 7 9 1017.6 0.2 34.2 36.3 66.6 175.8 188.1 652.4
05/05 23:40 19.9 92 15.81 18.6 9 9 1017.4 0.2 34.6 36.5 67.3 177.7 190.5 660.6
05/05 23:30 19.8 92 15.71 18.5 7 11 1017.3 0.2 34.4 36.4 66.9 176.7 189.2 656.1
05/05 23:20 19.6 92 15.53 18.3 6 7 1017.8 0.2 34.0 36.1 66.3 175.0 187.0 648.5
05/05 23:10 19.6 92 15.53 18.3 6 6 1017.5 0.2 34.0 36.1 66.2 174.9 187.0 648.4
05/05 23:00 19.6 92 15.53 18.3 6 7 1017.4 0.2 34.0 36.1 66.2 174.9 187.0 648.3
05/05 22:50 19.6 91 15.36 18.1 6 6 1017.6 0.2 33.7 35.8 65.5 172.9 184.4 639.4
05/05 22:40 19.9 91 15.63 18.4 6 7 1017.5 0.2 34.2 36.2 66.4 175.5 187.7 651.1
05/05 22:30 20 91 15.73 18.5 4 7 1017.2 0.2 34.4 36.3 66.8 176.5 189.0 655.4
05/05 22:20 20 91 15.73 18.5 0 0 1017.4 0.2 34.4 36.3 66.8 176.5 189.0 655.5
05/05 22:10 20.1 91 15.82 18.6 0 0 1017.3 0.2 34.6 36.4 67.1 177.4 190.1 659.4
05/05 22:00 20.2 91 15.91 18.7 0 2 1017.2 0.2 34.8 36.6 67.5 178.2 191.2 663.3
05/05 21:50 20.1 91 15.82 18.6 2 4 1017.5 0.2 34.6 36.5 67.2 177.4 190.1 659.5
05/05 21:40 20.1 91 15.82 18.6 7 7 1017.6 0.2 34.6 36.5 67.2 177.4 190.1 659.5
05/05 21:30 20.1 90 15.64 18.4 7 9 1017.3 0.2 34.2 36.1 66.3 175.1 187.4 649.8
05/05 21:20 20.4 90 15.92 18.7 6 6 1017.1 0.2 34.8 36.5 67.3 177.9 190.8 662.0
05/05 21:10 20.5 90 16.01 18.8 6 6 1017 0.2 35.0 36.6 67.7 178.7 191.9 665.8
05/05 21:00 20.3 90 15.83 18.6 6 7 1017.3 0.2 34.6 36.4 67.0 177.0 189.8 658.2
05/05 20:50 20.3 89 15.65 18.4 6 7 1017.5 0.2 34.2 36.1 66.2 174.8 187.0 648.8
05/05 20:40 20.7 90 16.2 19 7 9 1017.4 0.2 35.4 36.9 68.4 180.7 194.4 674.4
05/05 20:30 20.6 90 16.11 18.9 4 7 1017.2 0.2 35.2 36.8 68.1 179.8 193.2 670.4
05/05 20:20 20.7 89 16.02 18.8 7 9 1017.4 0.2 35.0 36.6 67.6 178.4 191.6 664.8
05/05 20:10 20.7 89 16.02 18.8 15 19 1017.4 0.2 35.0 36.6 67.6 178.4 191.6 664.8
05/05 20:00 20.9 88 16.03 18.8 11 11 1017.1 0.2 35.0 36.5 67.4 178.1 191.2 663.4
05/05 19:50 21.1 87 16.03 18.9 11 11 1017.1 0.2 35.0 36.4 67.2 177.6 190.7 661.7
05/05 19:40 21.3 87 16.22 19 11 13 1017 0.2 35.4 36.7 67.9 179.4 193.1 669.9
05/05 19:30 21.4 85 15.93 18.8 13 13 1016.7 0.2 34.7 36.1 66.5 175.6 188.4 653.7
05/05 19:20 22.2 81 15.9 18.8 9 11 1016.8 0.2 34.6 35.7 65.7 173.4 186.0 645.3
05/05 19:10 22.6 81 16.27 19.2 9 11 1016.7 0.2 35.4 36.2 67.0 177.0 190.5 661.0
05/05 19:00 22.6 81 16.27 19.2 11 13 1016.2 0.2 35.4 36.2 67.0 176.9 190.4 660.8
05/05 18:50 22.5 81 16.18 19.1 11 11 1016.5 0.2 35.2 36.0 66.7 176.1 189.4 657.1
05/05 18:40 22.7 81 16.36 19.3 7 9 1016.6 0.2 35.5 36.3 67.3 177.8 191.6 664.8
05/05 18:30 22.7 81 16.36 19.3 9 13 1016.3 0.2 35.5 36.3 67.3 177.8 191.5 664.6
05/05 18:20 22.4 81 16.09 19 9 11 1016.5 0.2 35.0 35.9 66.3 175.2 188.3 653.3
05/05 18:10 22.5 81 16.18 19.1 6 7 1016.4 0.2 35.2 36.0 66.6 176.1 189.3 657.1
05/05 18:00 22.6 81 16.27 19.2 7 13 1016.2 0.2 35.4 36.2 67.0 176.9 190.4 660.8
05/05 17:50 22.6 82 16.47 19.4 9 11 1015.9 0.2 35.8 36.5 67.9 179.3 193.4 671.1
05/05 17:40 22.7 82 16.57 19.5 7 7 1016 0.2 36.0 36.7 68.2 180.3 194.6 675.4
05/05 17:30 22.7 82 16.57 19.5 9 13 1015.6 0.2 36.0 36.6 68.2 180.2 194.6 675.2
05/05 17:20 22.7 82 16.57 19.5 9 9 1015.8 0.2 36.0 36.7 68.2 180.3 194.6 675.3
05/05 17:10 22.8 81 16.46 19.4 9 11 1015.9 0.2 35.8 36.4 67.6 178.7 192.7 668.8
05/05 17:00 22.9 81 16.55 19.5 11 15 1015.7 0.2 35.9 36.5 67.9 179.5 193.8 672.5
05/05 16:50 23 80 16.44 19.4 9 11 1015.6 0.2 35.7 36.3 67.3 178.0 191.8 665.8
05/05 16:40 23.2 80 16.63 19.6 11 15 1015.7 0.2 36.1 36.5 68.0 179.8 194.2 674.0
05/05 16:30 23.2 80 16.63 19.6 15 19 1015.4 0.2 36.1 36.5 68.0 179.8 194.1 673.8
05/05 16:20 23.3 80 16.73 19.7 13 17 1015.6 0.2 36.3 36.7 68.4 180.8 195.4 678.2
05/05 16:10 23.3 79 16.52 19.5 15 17 1015.5 0.2 35.8 36.3 67.4 178.2 192.3 667.3
05/05 16:00 23.3 78 16.31 19.2 13 17 1015.5 0.2 35.4 35.9 66.5 175.7 189.1 656.5
05/05 15:50 23.4 78 16.4 19.3 13 13 1015.5 0.2 35.6 36.0 66.8 176.5 190.2 660.2
05/05 15:40 23.5 78 16.49 19.4 15 17 1015.4 0.2 35.8 36.1 67.1 177.4 191.3 664.0
05/05 15:30 23.6 77 16.38 19.3 13 17 1015.5 0.2 35.5 35.9 66.5 175.8 189.4 657.5
05/05 15:20 23.7 77 16.47 19.4 15 17 1015.3 0.2 35.7 36.0 66.8 176.6 190.5 661.2
05/05 15:10 23.8 77 16.56 19.5 13 17 1015.3 0.2 35.9 36.1 67.2 177.5 191.5 664.9
05/05 15:00 23.9 77 16.66 19.6 15 19 1015 0.2 36.1 36.3 67.5 178.4 192.7 669.0
05/05 14:50 23.9 76 16.44 19.4 15 19 1015.2 0.2 35.6 35.9 66.5 175.8 189.5 657.8
05/05 14:40 24 74 16.1 19.1 15 19 1015.1 0.2 34.9 35.2 64.9 171.5 184.3 639.7
05/05 14:30 24.1 75 16.41 19.4 13 19 1015 0.2 35.5 35.7 66.2 175.0 188.5 654.5
05/05 14:20 23.9 73 15.79 18.8 15 17 1015.2 0.2 34.2 34.7 63.6 168.1 180.0 624.9
05/05 14:10 24.2 75 16.5 19.5 15 17 1015.3 0.2 35.7 35.9 66.5 175.9 189.7 658.4
05/05 14:00 24 75 16.32 19.3 17 20 1015 0.2 35.4 35.6 65.9 174.1 187.5 650.8
05/05 13:50 24.7 75 16.98 20 13 15 1015.3 0.2 36.7 36.5 68.3 180.4 195.4 678.6
05/05 13:40 24.3 76 16.82 19.8 13 17 1015 0.2 36.4 36.4 67.9 179.4 194.1 673.7
05/05 13:30 24.1 76 16.63 19.6 15 20 1015.1 0.2 36.0 36.1 67.2 177.6 191.8 665.8
05/05 13:20 24.2 74 16.28 19.3 17 19 1015.3 0.2 35.2 35.5 65.6 173.2 186.4 647.2
05/05 13:10 24.5 72 16.11 19.1 15 17 1015.4 0.2 34.9 35.0 64.6 170.6 183.3 636.1
05/05 13:00 25.2 72 16.76 19.8 17 20 1015.3 0.2 36.2 35.9 66.8 176.7 190.9 663.0
05/05 12:50 24.6 72 16.2 19.2 19 20 1015.3 0.2 35.0 35.2 64.9 171.4 184.3 639.8
05/05 12:40 24.7 70 15.84 18.9 20 20 1015.5 0.2 34.3 34.5 63.2 167.0 178.9 621.0
05/05 12:30 24.4 71 15.8 18.8 19 24 1015.3 0.2 34.2 34.5 63.3 167.2 179.0 621.4
05/05 12:20 24.9 69 15.79 19 20 20 1015.7 0.2 34.1 34.3 62.8 166.0 177.8 617.0
05/05 12:10 24.7 71 16.07 19.1 17 19 1016 0.2 34.8 34.9 64.3 169.8 182.3 632.8
05/05 12:00 25.2 72 16.76 19.8 17 20 1016 0.2 36.2 35.9 66.9 176.8 191.0 663.3
05/05 11:50 24.7 72 16.3 19.3 17 20 1016.1 0.2 35.2 35.3 65.3 172.5 185.6 644.4
05/05 11:40 24.3 73 16.15 19.1 20 22 1016.3 0.2 35.0 35.2 65.0 171.6 184.4 640.2
05/05 11:30 24.3 73 16.15 19.1 20 24 1016.2 0.2 35.0 35.2 65.0 171.6 184.4 640.2
05/05 11:20 24.5 73 16.34 19.3 19 22 1016.4 0.2 35.3 35.5 65.6 173.4 186.7 648.2
05/05 11:10 24.5 72 16.11 19.1 19 22 1016.7 0.2 34.9 35.1 64.6 170.8 183.4 636.7
05/05 11:00 24.4 74 16.47 19.5 22 24 1016.8 0.2 35.6 35.8 66.3 175.3 188.9 655.8
05/05 10:50 24.6 72 16.2 19.2 19 22 1017.2 0.2 35.0 35.2 65.0 171.7 184.6 640.7
05/05 10:40 24.8 75 17.07 20.1 19 20 1017.2 0.2 36.9 36.7 68.7 181.6 196.8 683.2
05/05 10:30 25 72 16.57 19.6 17 22 1017.1 0.2 35.8 35.7 66.3 175.1 188.9 655.9
05/05 10:20 24.5 70 15.67 18.7 20 22 1017.3 0.2 33.9 34.3 62.7 165.7 177.2 615.0
05/05 10:10 25.1 70 16.2 19.2 15 19 1017.4 0.2 35.0 35.0 64.6 170.6 183.4 636.6
05/05 10:00 25.1 70 16.2 19.2 15 19 1017.3 0.2 35.0 35.0 64.6 170.6 183.4 636.6
05/05 09:50 24.5 70 15.67 18.7 17 20 1017.5 0 33.9 34.4 62.8 165.7 177.2 615.1
05/05 09:40 24.7 69 15.62 18.6 17 20 1017.5 0 33.8 34.2 62.4 164.7 176.0 611.0
05/05 09:30 24.6 73 16.43 19.4 15 24 1017.5 0 35.5 35.7 66.0 174.4 187.9 652.4
05/05 09:20 24.1 73 15.97 19 13 17 1017.6 0 34.6 35.0 64.4 170.1 182.5 633.4
05/05 09:10 23.9 76 16.44 19.4 20 22 1017.6 0 35.6 36.0 66.7 176.2 189.8 659.0
05/05 09:00 23.5 76 16.07 19 17 22 1017.6 0 34.9 35.5 65.4 172.6 185.4 643.5
05/05 08:50 23.7 79 16.9 19.8 15 19 1017.7 0.4 36.6 36.9 68.9 182.2 197.2 684.5
05/05 08:40 23.3 79 16.52 19.5 15 17 1017.6 0.4 35.8 36.4 67.6 178.5 192.5 668.3
05/05 08:30 23 81 16.65 19.6 15 19 1017.5 0.4 36.1 36.7 68.4 180.8 195.2 677.7
05/05 08:20 22.7 82 16.57 19.5 13 15 1017.6 0.4 36.0 36.7 68.3 180.5 194.8 676.2
05/05 08:10 22.2 83 16.29 19.2 15 17 1017.6 0.4 35.4 36.4 67.5 178.3 191.9 666.0
05/05 08:00 21.9 85 16.4 19.3 15 19 1017.5 0.4 35.7 36.8 68.3 180.3 194.3 674.3
05/05 07:50 21.6 88 16.69 19.5 15 17 1017.6 0.4 36.3 37.4 69.9 184.6 199.5 692.4
05/05 07:40 21.1 92 16.95 19.7 11 13 1017.6 0.4 36.9 38.2 71.6 189.1 204.9 711.0
05/05 07:30 20.7 93 16.74 19.5 9 13 1017.5 0.4 36.5 37.9 70.9 187.5 202.7 703.4
05/05 07:20 20.3 93 16.35 19.1 7 9 1017.4 0.4 35.7 37.4 69.5 183.5 197.7 686.0

Last Refresh: 05-May-2026 23:31:09

Bureau of Meteorology